Moscow, Indiana
Current Conditions -  °F | °C
As of 1:53 AM on Wednesday 22 Oct 2014 (Local Time) from KGEZ Reporting Station
Overcast Overcast  
Wind Chill: 44°   Ceiling: 3400
Heat Index: 47°   Visibility: 10mi
Dew Point: 36°   Wind: 6mph
Humidity: 66%   Direction: 10°N
Pressure: 30.2"   Gusts: NA
Location:  39.4961°N, 85.5177°W
Report Text: KGEZ 220553Z AUTO 01005KT 10SM OVC034 08/02 A3020 RMK AO2 SLP228 T00830022 10100 20078 51005
Loading
Personal Weather Stations






























Interactive Weather Map
Tropical Storm Tracking
New forecast layout! Learn more

10-Day Weather Forecast

Advertisements
Track Severe Weather on mobile